Time;durP1;ratioP1;P1;durP2;ratioP2;P2;SDS_P1;SDS_P2;PMS_P1;PMS_P2;Temp;Humidity;BMP_temperature;BMP_pressure;BME280_temperature;BME280_humidity;BME280_pressure;Samples;Min_cycle;Max_cycle;Signal;HPM_P1;HPM_P2
2022/02/27 00:01:17;;;;;;;;;;;0.60;99.90;;;;;;5032191;28;19919;-79
2022/02/27 00:03:43;;;;;;;;;;;0.60;99.90;;;;;;5031925;28;20331;-80
2022/02/27 00:06:08;;;;;;;;;;;0.60;99.90;;;;;;5033585;28;19960;-81
2022/02/27 00:08:34;;;;;;;;;;;0.50;99.90;;;;;;5014811;28;19921;-80
2022/02/27 00:10:59;;;;;;;;;;;0.50;99.90;;;;;;5032790;28;20004;-80
2022/02/27 00:13:25;;;;;;;;;;;0.50;99.90;;;;;;5014453;28;20307;-79
2022/02/27 00:15:50;;;;;;;;;;;0.40;99.90;;;;;;5040777;28;19913;-80
2022/02/27 00:18:16;;;;;;;;;;;0.40;99.90;;;;;;5031931;28;19917;-81
2022/02/27 00:20:42;;;;;;;;;;;0.40;99.90;;;;;;5034127;28;19923;-81
2022/02/27 00:23:07;;;;;;;;;;;0.40;99.90;;;;;;5023851;28;20418;-80
2022/02/27 00:25:33;;;;;;;;;;;0.40;99.90;;;;;;5028364;28;19953;-77
2022/02/27 00:28:00;;;;;;;;;;;0.40;99.90;;;;;;5031612;28;20429;-81
2022/02/27 00:30:26;;;;;;;;;;;0.40;99.90;;;;;;5033450;28;19936;-80
2022/02/27 00:32:51;;;;;;;;;;;0.30;99.90;;;;;;5033679;28;20291;-79
2022/02/27 00:35:17;;;;;;;;;;;0.30;99.90;;;;;;5032977;28;19967;-81
2022/02/27 00:37:44;;;;;;;;;;;0.20;99.90;;;;;;5031520;28;20016;-81
2022/02/27 00:40:11;;;;;;;;;;;0.20;99.90;;;;;;5030473;28;20371;-81
2022/02/27 00:42:37;;;;;;;;;;;0.10;99.90;;;;;;5029710;28;20291;-82
2022/02/27 00:45:03;;;;;;;;;;;0.10;99.90;;;;;;5009419;28;19917;-82
2022/02/27 00:47:29;;;;;;;;;;;0.00;99.90;;;;;;5030851;28;19928;-77
2022/02/27 00:49:55;;;;;;;;;;;0.00;99.90;;;;;;5036226;28;19924;-78
2022/02/27 00:52:22;;;;;;;;;;;-0.10;99.90;;;;;;5040001;28;19917;-78
2022/02/27 00:54:49;;;;;;;;;;;-0.20;99.90;;;;;;5034446;28;19924;-77
2022/02/27 00:57:14;;;;;;;;;;;-0.20;99.90;;;;;;5484305;22;20035;-90
2022/02/27 00:59:44;;;;;;;;;;;-0.20;99.90;;;;;;5034606;28;19936;-91
2022/02/27 01:02:10;;;;;;;;;;;-0.30;99.90;;;;;;5049147;28;20000;-91
2022/02/27 01:04:36;;;;;;;;;;;-0.30;99.90;;;;;;5034843;28;19952;-91
2022/02/27 01:07:02;;;;;;;;;;;-0.40;99.90;;;;;;5021128;28;19971;-91
2022/02/27 01:09:27;;;;;;;;;;;-0.40;99.90;;;;;;5031345;28;20323;-91
2022/02/27 01:11:53;;;;;;;;;;;-0.40;99.90;;;;;;5014618;28;19917;-91
2022/02/27 01:14:19;;;;;;;;;;;-0.50;99.90;;;;;;5046995;28;20003;-91
2022/02/27 01:16:45;;;;;;;;;;;-0.50;99.90;;;;;;5046701;28;19913;-90
2022/02/27 01:19:10;;;;;;;;;;;-0.50;99.90;;;;;;5030811;28;19995;-92
2022/02/27 01:21:38;;;;;;;;;;;-0.40;99.90;;;;;;5031823;28;20016;-91
2022/02/27 01:24:07;;;;;;;;;;;-0.40;99.90;;;;;;5033312;28;19913;-91
2022/02/27 01:26:33;;;;;;;;;;;-0.40;99.90;;;;;;5030160;28;20338;-91
2022/02/27 01:28:59;;;;;;;;;;;-0.40;99.90;;;;;;5038335;28;19932;-90
2022/02/27 01:31:26;;;;;;;;;;;-0.50;99.90;;;;;;5048515;28;19912;-91
2022/02/27 01:33:52;;;;;;;;;;;-0.50;99.90;;;;;;5031815;28;20003;-92
2022/02/27 01:36:19;;;;;;;;;;;-0.50;99.90;;;;;;5020457;28;19913;-92
2022/02/27 01:38:48;;;;;;;;;;;-0.50;99.90;;;;;;5020698;28;20003;-91
2022/02/27 01:41:15;;;;;;;;;;;-0.50;99.90;;;;;;5031319;28;19917;-92
2022/02/27 01:43:42;;;;;;;;;;;-0.50;99.90;;;;;;5028310;28;19933;-92
2022/02/27 01:46:10;;;;;;;;;;;-0.60;99.90;;;;;;5019872;28;20367;-91
2022/02/27 01:48:37;;;;;;;;;;;-0.60;99.90;;;;;;5013394;28;19923;-91
2022/02/27 01:51:03;;;;;;;;;;;-0.60;99.90;;;;;;5029805;28;19995;-92
2022/02/27 01:53:33;;;;;;;;;;;-0.70;99.90;;;;;;5028216;28;19914;-93
2022/02/27 01:55:59;;;;;;;;;;;-0.70;99.90;;;;;;5014880;28;19913;-92
2022/02/27 01:58:25;;;;;;;;;;;-0.70;99.90;;;;;;5037988;28;19928;-92
2022/02/27 02:00:51;;;;;;;;;;;-0.70;99.90;;;;;;5023982;28;19921;-92
2022/02/27 02:03:17;;;;;;;;;;;-0.70;99.90;;;;;;5012912;28;19975;-92
2022/02/27 02:05:43;;;;;;;;;;;-0.70;99.90;;;;;;5011383;28;19917;-92
2022/02/27 02:08:09;;;;;;;;;;;-0.80;99.90;;;;;;5028262;28;19917;-92
2022/02/27 02:10:36;;;;;;;;;;;-0.80;99.90;;;;;;5046661;28;20375;-92
2022/02/27 02:13:05;;;;;;;;;;;-0.80;99.90;;;;;;5028448;28;19913;-92
2022/02/27 02:15:31;;;;;;;;;;;-0.80;99.90;;;;;;5009629;28;19913;-91
2022/02/27 02:17:57;;;;;;;;;;;-0.80;99.90;;;;;;5043590;28;19940;-92
2022/02/27 02:20:22;;;;;;;;;;;-0.80;99.90;;;;;;5010027;28;19914;-92
2022/02/27 02:22:55;;;;;;;;;;;-0.80;99.90;;;;;;5024110;28;19917;-91
2022/02/27 02:25:22;;;;;;;;;;;-0.80;99.90;;;;;;5011619;28;19924;-91
2022/02/27 02:27:47;;;;;;;;;;;-0.80;99.90;;;;;;5042112;28;19917;-92
2022/02/27 02:30:15;;;;;;;;;;;-0.80;99.90;;;;;;5033191;28;20333;-91
2022/02/27 02:32:45;;;;;;;;;;;-0.80;99.90;;;;;;5044655;28;20382;-91
2022/02/27 02:35:11;;;;;;;;;;;-0.80;99.90;;;;;;5028726;28;19913;-92
2022/02/27 02:37:37;;;;;;;;;;;-0.80;99.90;;;;;;5014635;28;20272;-91
2022/02/27 02:40:04;;;;;;;;;;;-0.80;99.90;;;;;;5013937;28;19917;-91
2022/02/27 02:42:30;;;;;;;;;;;-0.80;99.90;;;;;;5031285;28;20076;-90
2022/02/27 02:44:55;;;;;;;;;;;-0.80;99.90;;;;;;5009757;28;20009;-92
2022/02/27 02:47:21;;;;;;;;;;;-0.80;99.90;;;;;;5027838;28;19925;-91
2022/02/27 02:49:50;;;;;;;;;;;-0.90;99.90;;;;;;5015331;28;20382;-91
2022/02/27 02:52:18;;;;;;;;;;;-0.90;99.90;;;;;;5014402;28;20121;-89
2022/02/27 02:54:43;;;;;;;;;;;-1.00;99.90;;;;;;5022533;28;19923;-91
2022/02/27 02:57:09;;;;;;;;;;;-1.00;99.90;;;;;;5030863;28;20330;-91
2022/02/27 02:59:35;;;;;;;;;;;-1.00;99.90;;;;;;5033738;28;20031;-90
2022/02/27 03:02:01;;;;;;;;;;;-1.00;99.90;;;;;;5039005;28;19967;-89
2022/02/27 03:04:26;;;;;;;;;;;-1.00;99.90;;;;;;5030552;28;19953;-90
2022/02/27 03:06:52;;;;;;;;;;;-1.00;99.90;;;;;;5012780;28;19917;-90
2022/02/27 03:09:18;;;;;;;;;;;-1.00;99.90;;;;;;5014614;28;19963;-90
2022/02/27 03:11:43;;;;;;;;;;;-1.00;99.90;;;;;;5016836;28;19943;-90
2022/02/27 03:14:09;;;;;;;;;;;-1.10;99.90;;;;;;5026526;28;20390;-89
2022/02/27 03:16:34;;;;;;;;;;;-1.10;99.90;;;;;;4999999;28;19918;-90
2022/02/27 03:19:00;;;;;;;;;;;-1.10;99.90;;;;;;5042975;28;19913;-90
2022/02/27 03:21:26;;;;;;;;;;;-1.10;99.90;;;;;;5022353;28;19913;-89
2022/02/27 03:23:52;;;;;;;;;;;-1.10;99.90;;;;;;5029341;28;20263;-90
2022/02/27 03:26:18;;;;;;;;;;;-1.10;99.90;;;;;;5043832;28;20299;-89
2022/02/27 03:28:44;;;;;;;;;;;-1.10;99.90;;;;;;5047800;28;19916;-89
2022/02/27 03:31:09;;;;;;;;;;;-1.20;99.90;;;;;;5032505;28;20345;-89
2022/02/27 03:33:35;;;;;;;;;;;-1.20;99.90;;;;;;5015838;28;19979;-89
2022/02/27 03:36:00;;;;;;;;;;;-1.20;99.90;;;;;;5011663;28;19965;-88
2022/02/27 03:38:26;;;;;;;;;;;-1.20;99.90;;;;;;5042884;28;19924;-89
2022/02/27 03:40:53;;;;;;;;;;;-1.20;99.90;;;;;;5009921;28;19913;-88
2022/02/27 03:43:18;;;;;;;;;;;-1.20;99.90;;;;;;5018120;28;19913;-88
2022/02/27 03:45:44;;;;;;;;;;;-1.20;99.90;;;;;;5009857;28;19920;-88
2022/02/27 03:48:09;;;;;;;;;;;-1.20;99.90;;;;;;5047333;28;20375;-89
2022/02/27 03:50:35;;;;;;;;;;;-1.20;99.90;;;;;;5035100;28;19921;-88
2022/02/27 03:53:01;;;;;;;;;;;-1.30;99.90;;;;;;5039849;28;20261;-88
2022/02/27 03:55:26;;;;;;;;;;;-1.30;99.90;;;;;;5015790;28;19921;-88
2022/02/27 03:57:52;;;;;;;;;;;-1.30;99.90;;;;;;5046424;28;19975;-87
2022/02/27 04:00:18;;;;;;;;;;;-1.30;99.90;;;;;;5023658;28;20408;-88
2022/02/27 04:02:45;;;;;;;;;;;-1.20;99.90;;;;;;5003352;28;19956;-89
2022/02/27 04:05:11;;;;;;;;;;;-1.20;99.90;;;;;;5010338;28;20430;-87
2022/02/27 04:07:37;;;;;;;;;;;-1.30;99.90;;;;;;5036089;28;19970;-87
2022/02/27 04:10:02;;;;;;;;;;;-1.30;99.90;;;;;;5008244;28;19917;-87
2022/02/27 04:12:28;;;;;;;;;;;-1.30;99.90;;;;;;5033053;28;19925;-87
2022/02/27 04:14:54;;;;;;;;;;;-1.30;99.90;;;;;;5045321;28;19917;-86
2022/02/27 04:17:19;;;;;;;;;;;-1.20;99.90;;;;;;4995588;28;19922;-87
2022/02/27 04:19:45;;;;;;;;;;;-1.20;99.90;;;;;;5042085;28;19924;-87
2022/02/27 04:22:10;;;;;;;;;;;-1.30;99.90;;;;;;5042634;28;19976;-87
2022/02/27 04:24:36;;;;;;;;;;;-1.30;99.90;;;;;;5049586;28;20390;-86
2022/02/27 04:27:02;;;;;;;;;;;-1.40;99.90;;;;;;5033491;28;19928;-87
2022/02/27 04:29:27;;;;;;;;;;;-1.40;99.90;;;;;;5011919;28;20362;-87
2022/02/27 04:31:53;;;;;;;;;;;-1.40;99.90;;;;;;5029597;28;19971;-86
2022/02/27 04:34:18;;;;;;;;;;;-1.40;99.90;;;;;;5012546;28;19920;-87
2022/02/27 04:36:44;;;;;;;;;;;-1.40;99.90;;;;;;5042442;28;20028;-86
2022/02/27 04:39:10;;;;;;;;;;;-1.40;99.90;;;;;;5028620;28;19914;-87
2022/02/27 04:41:35;;;;;;;;;;;-1.40;99.90;;;;;;5044301;28;19914;-88
2022/02/27 04:44:01;;;;;;;;;;;-1.40;99.90;;;;;;5048738;28;19917;-86
2022/02/27 04:46:27;;;;;;;;;;;-1.30;99.90;;;;;;5003784;28;19917;-86
2022/02/27 04:48:53;;;;;;;;;;;-1.20;99.90;;;;;;5028580;28;19980;-86
2022/02/27 04:51:18;;;;;;;;;;;-1.20;99.90;;;;;;5015456;28;20345;-86
2022/02/27 04:53:45;;;;;;;;;;;-1.20;99.90;;;;;;4994989;28;20004;-86
2022/02/27 04:56:11;;;;;;;;;;;-1.10;99.90;;;;;;5030902;28;20390;-86
2022/02/27 04:58:37;;;;;;;;;;;-1.10;99.90;;;;;;4997510;28;19921;-86
2022/02/27 05:01:03;;;;;;;;;;;-1.10;99.90;;;;;;5014173;28;19952;-87
2022/02/27 05:03:28;;;;;;;;;;;-0.90;99.90;;;;;;5030819;28;19917;-86
2022/02/27 05:05:54;;;;;;;;;;;-1.00;99.90;;;;;;5040572;28;19947;-86
2022/02/27 05:08:20;;;;;;;;;;;-1.00;99.90;;;;;;5031860;28;19921;-86
2022/02/27 05:10:45;;;;;;;;;;;-1.00;99.90;;;;;;5014375;28;19913;-86
2022/02/27 05:13:11;;;;;;;;;;;-1.00;99.90;;;;;;5044191;28;19925;-86
2022/02/27 05:15:36;;;;;;;;;;;-1.00;99.90;;;;;;5010873;28;19920;-86
2022/02/27 05:18:02;;;;;;;;;;;-1.00;99.90;;;;;;5035337;28;19995;-86
2022/02/27 05:20:28;;;;;;;;;;;-0.90;99.90;;;;;;5036868;28;19917;-86
2022/02/27 05:22:53;;;;;;;;;;;-0.90;99.90;;;;;;5013968;28;20375;-87
2022/02/27 05:25:20;;;;;;;;;;;-0.90;99.90;;;;;;5030692;28;20359;-89
2022/02/27 05:27:46;;;;;;;;;;;-0.80;99.90;;;;;;5002955;28;19921;-86
2022/02/27 05:30:12;;;;;;;;;;;-0.80;99.90;;;;;;5017297;28;19919;-87
2022/02/27 05:32:38;;;;;;;;;;;-0.80;99.90;;;;;;5002459;28;19914;-86
2022/02/27 05:35:04;;;;;;;;;;;-0.80;99.90;;;;;;5001489;28;19924;-87
2022/02/27 05:37:29;;;;;;;;;;;-0.80;99.90;;;;;;5007073;28;20003;-87
2022/02/27 05:39:55;;;;;;;;;;;-0.80;99.90;;;;;;5027935;28;19932;-86
2022/02/27 05:42:21;;;;;;;;;;;-0.80;99.90;;;;;;5025663;28;19913;-86
2022/02/27 05:44:46;;;;;;;;;;;-0.80;99.90;;;;;;5003994;28;19936;-86
2022/02/27 05:47:12;;;;;;;;;;;-0.90;99.90;;;;;;5020904;28;19924;-87
2022/02/27 05:49:37;;;;;;;;;;;-0.90;99.90;;;;;;5030622;28;19921;-88
2022/02/27 05:52:03;;;;;;;;;;;-0.90;99.90;;;;;;5037603;28;19917;-88
2022/02/27 05:54:29;;;;;;;;;;;-0.90;99.90;;;;;;5032664;28;19913;-89
2022/02/27 05:56:55;;;;;;;;;;;-1.00;99.90;;;;;;5002852;28;20011;-89
2022/02/27 05:59:20;;;;;;;;;;;-1.00;99.90;;;;;;5010355;28;19925;-88
2022/02/27 06:01:47;;;;;;;;;;;-1.00;99.90;;;;;;5039002;28;19918;-89
2022/02/27 06:04:13;;;;;;;;;;;-1.00;99.90;;;;;;5013554;28;19916;-88
2022/02/27 06:06:39;;;;;;;;;;;-1.10;99.90;;;;;;5029742;28;19924;-89
2022/02/27 06:09:04;;;;;;;;;;;-1.10;99.90;;;;;;5025255;28;19925;-88
2022/02/27 06:11:30;;;;;;;;;;;-1.10;99.90;;;;;;5008680;28;19963;-88
2022/02/27 06:13:55;;;;;;;;;;;-1.10;99.90;;;;;;5035482;28;19917;-89
2022/02/27 06:16:21;;;;;;;;;;;-1.10;99.90;;;;;;5031454;28;19913;-89
2022/02/27 06:18:47;;;;;;;;;;;-1.10;99.90;;;;;;5042597;28;20001;-89
2022/02/27 06:21:12;;;;;;;;;;;-1.10;99.90;;;;;;5026517;28;20417;-88
2022/02/27 06:23:38;;;;;;;;;;;-1.10;99.90;;;;;;5029154;28;19921;-89
2022/02/27 06:26:03;;;;;;;;;;;-1.10;99.90;;;;;;5029616;28;19913;-89
2022/02/27 06:28:29;;;;;;;;;;;-1.10;99.90;;;;;;5007715;28;19921;-89
2022/02/27 06:30:55;;;;;;;;;;;-1.10;99.90;;;;;;5026326;28;19963;-89
2022/02/27 06:33:21;;;;;;;;;;;-1.10;99.90;;;;;;5023750;28;20291;-89
2022/02/27 06:35:47;;;;;;;;;;;-1.10;99.90;;;;;;5004195;28;19932;-89
2022/02/27 06:38:12;;;;;;;;;;;-1.10;99.90;;;;;;5025525;28;19918;-89
2022/02/27 06:40:38;;;;;;;;;;;-1.00;99.90;;;;;;5028495;28;19932;-89
2022/02/27 06:43:04;;;;;;;;;;;-1.00;99.90;;;;;;5028766;28;19917;-89
2022/02/27 06:45:30;;;;;;;;;;;-0.90;99.90;;;;;;5035124;28;19917;-89
2022/02/27 06:47:56;;;;;;;;;;;-0.90;99.90;;;;;;5039991;28;20413;-89
2022/02/27 06:50:23;;;;;;;;;;;-0.80;99.90;;;;;;5026355;28;20332;-89
2022/02/27 06:52:49;;;;;;;;;;;-0.80;99.90;;;;;;5029318;28;19917;-89
2022/02/27 06:55:15;;;;;;;;;;;-0.70;99.90;;;;;;5044664;28;20384;-89
2022/02/27 06:57:42;;;;;;;;;;;-0.70;99.90;;;;;;5023980;28;20379;-89
2022/02/27 07:00:09;;;;;;;;;;;-0.60;99.90;;;;;;5011192;28;19913;-89
2022/02/27 07:02:34;;;;;;;;;;;-0.50;99.90;;;;;;5034186;28;20322;-89
2022/02/27 07:05:00;;;;;;;;;;;-0.50;99.90;;;;;;5028325;28;19913;-89
2022/02/27 07:07:26;;;;;;;;;;;-0.40;99.90;;;;;;5030433;28;19923;-89
2022/02/27 07:09:51;;;;;;;;;;;-0.30;99.90;;;;;;5028820;28;19913;-90
2022/02/27 07:12:17;;;;;;;;;;;-0.30;99.90;;;;;;5028238;28;19952;-90
2022/02/27 07:14:43;;;;;;;;;;;-0.10;99.90;;;;;;5017235;28;19917;-90
2022/02/27 07:17:09;;;;;;;;;;;0.00;99.90;;;;;;5044862;28;20287;-89
2022/02/27 07:19:36;;;;;;;;;;;0.10;99.90;;;;;;5035166;28;19974;-90
2022/02/27 07:22:02;;;;;;;;;;;0.30;99.90;;;;;;5039807;28;19936;-89
2022/02/27 07:24:28;;;;;;;;;;;0.60;99.90;;;;;;5015497;28;20004;-89
2022/02/27 07:26:53;;;;;;;;;;;0.90;99.90;;;;;;5046520;28;20023;-89
2022/02/27 07:29:19;;;;;;;;;;;1.20;99.90;;;;;;5039891;28;19913;-89
2022/02/27 07:31:45;;;;;;;;;;;1.50;99.90;;;;;;5044511;28;19914;-89
2022/02/27 07:34:12;;;;;;;;;;;1.70;99.90;;;;;;5032233;28;19913;-88
2022/02/27 07:36:38;;;;;;;;;;;2.00;99.90;;;;;;5027597;28;19925;-89
2022/02/27 07:39:03;;;;;;;;;;;2.20;99.90;;;;;;5014959;28;19921;-88
2022/02/27 07:41:29;;;;;;;;;;;2.40;99.90;;;;;;5033273;28;19913;-89
2022/02/27 07:43:55;;;;;;;;;;;2.50;99.90;;;;;;5050102;28;20395;-89
2022/02/27 07:46:21;;;;;;;;;;;2.60;99.90;;;;;;5020405;28;19917;-88
2022/02/27 07:48:47;;;;;;;;;;;2.70;99.90;;;;;;5029739;28;20379;-89
2022/02/27 07:51:12;;;;;;;;;;;2.70;99.90;;;;;;5045154;28;20388;-89
2022/02/27 07:53:38;;;;;;;;;;;2.80;99.90;;;;;;5030926;28;19921;-89
2022/02/27 07:56:04;;;;;;;;;;;2.80;99.90;;;;;;5011530;28;19924;-89
2022/02/27 07:58:29;;;;;;;;;;;2.80;99.90;;;;;;5030472;28;19922;-89
2022/02/27 08:00:55;;;;;;;;;;;2.80;99.90;;;;;;5025052;28;19936;-90
2022/02/27 08:03:20;;;;;;;;;;;2.90;99.90;;;;;;5028138;28;19917;-90
2022/02/27 08:05:46;;;;;;;;;;;2.90;99.90;;;;;;5030682;28;19913;-90
2022/02/27 08:08:12;;;;;;;;;;;2.90;99.90;;;;;;5024861;28;19913;-90
2022/02/27 08:10:38;;;;;;;;;;;2.90;99.90;;;;;;5026326;28;20386;-90
2022/02/27 08:13:03;;;;;;;;;;;2.90;99.90;;;;;;5004089;28;20248;-89
2022/02/27 08:15:29;;;;;;;;;;;2.90;99.90;;;;;;5003731;28;19917;-90
2022/02/27 08:17:54;;;;;;;;;;;3.00;99.90;;;;;;5031966;28;20371;-90
2022/02/27 08:20:20;;;;;;;;;;;2.90;99.90;;;;;;5004204;28;19917;-90
2022/02/27 08:22:46;;;;;;;;;;;2.90;99.90;;;;;;5000358;28;20264;-91
2022/02/27 08:25:14;;;;;;;;;;;2.80;99.90;;;;;;5035013;28;19913;-89
2022/02/27 08:27:40;;;;;;;;;;;2.80;99.90;;;;;;5020277;28;19917;-90
2022/02/27 08:30:06;;;;;;;;;;;2.80;99.90;;;;;;5042124;28;19967;-91
2022/02/27 08:32:31;;;;;;;;;;;2.90;99.90;;;;;;5006578;28;20315;-90
2022/02/27 08:34:59;;;;;;;;;;;2.90;99.90;;;;;;5036174;28;19917;-90
2022/02/27 08:37:25;;;;;;;;;;;2.90;99.90;;;;;;5005784;28;20391;-91
2022/02/27 08:39:51;;;;;;;;;;;3.00;99.90;;;;;;5047428;28;19917;-90
2022/02/27 08:42:16;;;;;;;;;;;3.00;99.90;;;;;;5004125;28;19929;-90
2022/02/27 08:44:42;;;;;;;;;;;3.10;99.90;;;;;;5030237;28;19917;-89
2022/02/27 08:47:07;;;;;;;;;;;3.10;99.90;;;;;;4999965;28;19931;-89
2022/02/27 08:49:36;;;;;;;;;;;3.10;99.90;;;;;;5028717;28;20024;-90
2022/02/27 08:52:03;;;;;;;;;;;3.20;99.90;;;;;;5023865;28;19924;-91
2022/02/27 08:54:28;;;;;;;;;;;3.20;99.90;;;;;;5005740;28;19913;-90
2022/02/27 08:56:54;;;;;;;;;;;3.30;99.90;;;;;;5008561;28;19978;-90
2022/02/27 08:59:20;;;;;;;;;;;3.30;99.90;;;;;;5046534;28;19941;-90
2022/02/27 09:05:16;;;;;;;;;;;3.40;99.90;;;;;;5018326;28;20379;-91
2022/02/27 09:07:42;;;;;;;;;;;3.50;99.90;;;;;;5008594;28;19956;-90
2022/02/27 09:10:11;;;;;;;;;;;3.60;99.90;;;;;;5026161;28;20410;-90
2022/02/27 09:13:11;;;;;;;;;;;3.60;99.90;;;;;;5003261;28;19917;-90
2022/02/27 09:15:37;;;;;;;;;;;3.60;99.90;;;;;;5017941;28;19920;-90
2022/02/27 09:18:02;;;;;;;;;;;3.60;99.90;;;;;;5020772;28;20283;-91
2022/02/27 09:20:29;;;;;;;;;;;3.50;99.90;;;;;;5011042;28;19920;-90
2022/02/27 09:22:54;;;;;;;;;;;3.40;99.90;;;;;;5039161;28;19913;-90
2022/02/27 09:25:20;;;;;;;;;;;3.40;99.90;;;;;;5002443;28;20276;-88
2022/02/27 09:27:45;;;;;;;;;;;3.30;99.90;;;;;;5032831;28;19936;-90
2022/02/27 09:30:15;;;;;;;;;;;3.30;99.90;;;;;;5026408;28;19964;-89
2022/02/27 09:32:41;;;;;;;;;;;3.20;99.90;;;;;;5032290;28;19913;-90
2022/02/27 09:35:07;;;;;;;;;;;3.10;99.90;;;;;;5035319;28;19952;-90
2022/02/27 09:37:33;;;;;;;;;;;3.10;99.90;;;;;;5032838;28;19995;-90
2022/02/27 09:39:59;;;;;;;;;;;3.20;99.90;;;;;;5028316;28;19913;-90
2022/02/27 09:42:29;;;;;;;;;;;3.30;99.90;;;;;;4999669;28;20275;-88
2022/02/27 09:44:55;;;;;;;;;;;3.40;99.90;;;;;;5002120;28;19917;-89
2022/02/27 09:47:21;;;;;;;;;;;3.40;99.90;;;;;;5000128;28;19924;-89
2022/02/27 09:49:47;;;;;;;;;;;3.30;99.90;;;;;;4995410;28;19918;-88
2022/02/27 09:52:13;;;;;;;;;;;3.30;99.90;;;;;;5020866;28;19913;-90
2022/02/27 09:54:39;;;;;;;;;;;3.20;99.90;;;;;;5035163;28;19917;-89
2022/02/27 09:57:04;;;;;;;;;;;3.30;99.90;;;;;;5010618;28;19920;-90
2022/02/27 09:59:30;;;;;;;;;;;3.30;99.90;;;;;;5043353;28;19913;-90
2022/02/27 10:02:00;;;;;;;;;;;3.20;99.90;;;;;;5022778;28;20382;-89
2022/02/27 10:04:31;;;;;;;;;;;3.10;99.90;;;;;;5018482;28;19914;-90
2022/02/27 10:06:56;;;;;;;;;;;3.20;99.90;;;;;;5031751;28;19976;-89
2022/02/27 10:09:23;;;;;;;;;;;3.20;99.90;;;;;;5026256;28;19957;-88
2022/02/27 10:11:49;;;;;;;;;;;3.30;99.90;;;;;;5038370;28;19914;-87
2022/02/27 10:14:23;;;;;;;;;;;3.40;99.90;;;;;;5002076;28;19987;-88
2022/02/27 10:16:48;;;;;;;;;;;3.30;99.90;;;;;;5021671;28;20028;-87
2022/02/27 10:19:19;;;;;;;;;;;3.40;99.90;;;;;;5025279;28;19952;-88
2022/02/27 10:21:46;;;;;;;;;;;3.40;99.90;;;;;;5001159;28;19913;-88
2022/02/27 10:24:15;;;;;;;;;;;3.50;99.90;;;;;;5020045;28;20406;-89
2022/02/27 10:26:43;;;;;;;;;;;3.60;99.90;;;;;;5032469;28;20399;-90
2022/02/27 10:29:16;;;;;;;;;;;3.70;99.90;;;;;;5028285;28;19943;-90
2022/02/27 10:31:43;;;;;;;;;;;3.90;99.90;;;;;;5018561;28;20397;-90
2022/02/27 10:34:22;;;;;;;;;;;4.10;99.90;;;;;;5004733;28;19917;-87
2022/02/27 10:36:50;;;;;;;;;;;4.30;99.90;;;;;;5018976;28;19929;-88
2022/02/27 10:39:26;;;;;;;;;;;4.60;99.90;;;;;;5026243;28;19919;-87
2022/02/27 10:41:51;;;;;;;;;;;4.60;99.90;;;;;;5038241;28;20347;-89
2022/02/27 10:44:21;;;;;;;;;;;4.70;99.90;;;;;;5032515;28;20000;-88
2022/02/27 10:46:47;;;;;;;;;;;4.60;99.90;;;;;;5007542;28;20322;-87
2022/02/27 10:49:13;;;;;;;;;;;4.70;99.90;;;;;;5051302;28;19917;-88
2022/02/27 10:51:39;;;;;;;;;;;4.70;99.90;;;;;;5038139;28;20436;-88
2022/02/27 10:54:05;;;;;;;;;;;4.80;99.90;;;;;;5006306;28;20339;-87
2022/02/27 10:56:34;;;;;;;;;;;4.80;99.90;;;;;;5001241;28;19960;-87
2022/02/27 10:59:10;;;;;;;;;;;4.70;99.90;;;;;;5031652;28;20375;-87
2022/02/27 11:01:38;;;;;;;;;;;4.80;99.90;;;;;;5022885;28;19920;-87
2022/02/27 11:04:04;;;;;;;;;;;4.90;99.90;;;;;;5041552;28;19921;-87
2022/02/27 11:06:30;;;;;;;;;;;4.90;99.90;;;;;;5037253;28;19942;-86
2022/02/27 11:08:58;;;;;;;;;;;4.90;99.90;;;;;;5040720;28;19921;-87
2022/02/27 11:11:23;;;;;;;;;;;5.00;99.90;;;;;;5035305;28;19921;-88
2022/02/27 11:13:49;;;;;;;;;;;5.00;99.90;;;;;;5029274;28;19920;-87
2022/02/27 11:16:15;;;;;;;;;;;4.90;99.90;;;;;;5025431;28;19921;-87
2022/02/27 11:18:41;;;;;;;;;;;4.80;99.90;;;;;;5027465;28;20545;-88
2022/02/27 11:21:08;;;;;;;;;;;4.80;99.90;;;;;;5014437;28;20423;-87
2022/02/27 11:23:36;;;;;;;;;;;4.80;99.90;;;;;;5022502;28;20265;-86
2022/02/27 11:26:03;;;;;;;;;;;4.80;99.90;;;;;;5015535;28;19964;-87
2022/02/27 11:28:29;;;;;;;;;;;4.80;99.90;;;;;;5042460;28;19921;-87
2022/02/27 11:30:59;;;;;;;;;;;4.90;99.90;;;;;;5014676;28;19913;-87
2022/02/27 11:33:25;;;;;;;;;;;4.90;99.90;;;;;;5014587;28;19917;-86
2022/02/27 11:35:51;;;;;;;;;;;5.10;99.90;;;;;;5033552;28;19917;-87
2022/02/27 11:38:20;;;;;;;;;;;5.10;99.90;;;;;;5042897;28;19952;-87
2022/02/27 11:40:47;;;;;;;;;;;5.10;99.90;;;;;;5045590;28;20005;-87
2022/02/27 11:43:17;;;;;;;;;;;5.10;99.90;;;;;;5031838;28;20290;-88
2022/02/27 11:45:42;;;;;;;;;;;5.00;99.50;;;;;;5040200;28;20397;-86
2022/02/27 11:48:08;;;;;;;;;;;5.00;98.80;;;;;;5034671;28;20011;-86
2022/02/27 11:50:35;;;;;;;;;;;4.90;99.90;;;;;;5032761;28;20379;-86
2022/02/27 11:53:18;;;;;;;;;;;4.80;99.90;;;;;;5016865;28;19913;-86
2022/02/27 11:55:44;;;;;;;;;;;4.90;99.90;;;;;;5016042;28;19917;-88
2022/02/27 11:58:18;;;;;;;;;;;4.90;99.90;;;;;;5042585;28;20041;-87
2022/02/27 12:00:44;;;;;;;;;;;4.80;99.60;;;;;;5016097;28;20015;-87
2022/02/27 12:03:28;;;;;;;;;;;4.80;99.90;;;;;;4988324;28;20379;-87
2022/02/27 12:05:55;;;;;;;;;;;4.70;98.50;;;;;;5043812;28;19952;-87
2022/02/27 12:08:38;;;;;;;;;;;4.70;98.60;;;;;;5046403;28;20773;-87
2022/02/27 12:11:04;;;;;;;;;;;4.80;99.20;;;;;;5032849;28;19921;-87
2022/02/27 12:13:30;;;;;;;;;;;4.90;98.90;;;;;;5016718;28;20004;-85
2022/02/27 12:16:13;;;;;;;;;;;5.00;98.20;;;;;;5041170;28;19913;-87
2022/02/27 12:18:52;;;;;;;;;;;5.20;97.80;;;;;;5031226;28;20008;-87
2022/02/27 12:21:20;;;;;;;;;;;5.30;97.00;;;;;;5042736;28;19913;-87
2022/02/27 12:23:48;;;;;;;;;;;5.30;97.60;;;;;;5040590;28;20537;-87
2022/02/27 12:26:36;;;;;;;;;;;5.40;97.90;;;;;;5047430;28;20345;-87
2022/02/27 12:29:03;;;;;;;;;;;5.40;98.30;;;;;;5043913;28;19916;-88
2022/02/27 12:31:30;;;;;;;;;;;5.50;97.10;;;;;;5014962;28;19917;-88
2022/02/27 12:33:57;;;;;;;;;;;5.50;96.00;;;;;;5014244;28;19921;-87
2022/02/27 12:36:39;;;;;;;;;;;5.50;96.00;;;;;;5031369;28;20407;-88
2022/02/27 12:39:07;;;;;;;;;;;5.60;98.40;;;;;;5041030;28;20402;-88
2022/02/27 12:41:34;;;;;;;;;;;5.60;98.10;;;;;;5030223;28;19957;-87
2022/02/27 12:44:00;;;;;;;;;;;5.60;97.80;;;;;;5021959;28;19925;-89
2022/02/27 12:46:26;;;;;;;;;;;5.70;95.70;;;;;;5032132;28;19917;-88
2022/02/27 12:51:37;;;;;;;;;;;5.70;97.20;;;;;;5034363;28;19917;-87
2022/02/27 12:54:13;;;;;;;;;;;5.80;97.70;;;;;;5032066;28;19956;-88
2022/02/27 12:56:39;;;;;;;;;;;5.90;97.50;;;;;;5045061;28;19921;-89
2022/02/27 12:59:05;;;;;;;;;;;5.90;95.40;;;;;;5026752;28;20362;-89
2022/02/27 13:01:32;;;;;;;;;;;5.80;97.70;;;;;;5030085;28;19936;-90
2022/02/27 13:04:02;;;;;;;;;;;5.80;97.00;;;;;;5049220;28;19959;-89
2022/02/27 13:06:27;;;;;;;;;;;5.90;95.70;;;;;;5045554;28;19913;-87
2022/02/27 13:08:53;;;;;;;;;;;5.90;95.70;;;;;;5028355;28;20438;-89
2022/02/27 13:11:37;;;;;;;;;;;5.90;94.90;;;;;;5000301;28;20323;-89
2022/02/27 13:14:03;;;;;;;;;;;5.90;93.70;;;;;;5015307;28;19936;-89
2022/02/27 13:16:29;;;;;;;;;;;5.90;94.00;;;;;;5023373;28;19909;-89
2022/02/27 13:18:57;;;;;;;;;;;5.90;94.70;;;;;;5007347;28;19924;-89
2022/02/27 13:21:23;;;;;;;;;;;5.90;92.60;;;;;;5044697;28;19917;-89
2022/02/27 13:24:02;;;;;;;;;;;6.00;94.40;;;;;;5003768;28;19983;-87
2022/02/27 13:26:29;;;;;;;;;;;6.00;93.20;;;;;;4974962;28;19914;-87
2022/02/27 13:28:56;;;;;;;;;;;6.00;92.80;;;;;;4984637;28;19922;-88
2022/02/27 13:31:22;;;;;;;;;;;6.00;93.70;;;;;;4997151;28;20001;-89
2022/02/27 13:33:49;;;;;;;;;;;5.90;93.40;;;;;;5008466;28;19918;-88
2022/02/27 13:36:15;;;;;;;;;;;5.90;93.10;;;;;;5008329;28;19921;-87
2022/02/27 13:38:42;;;;;;;;;;;5.90;92.80;;;;;;4991989;28;20391;-88
2022/02/27 13:41:07;;;;;;;;;;;5.70;94.40;;;;;;5010043;28;19918;-89
2022/02/27 13:43:52;;;;;;;;;;;5.60;94.30;;;;;;5009162;28;19995;-89
2022/02/27 13:46:18;;;;;;;;;;;5.60;93.10;;;;;;4993446;28;20412;-87
2022/02/27 13:48:44;;;;;;;;;;;5.50;94.50;;;;;;4982338;28;19965;-88
2022/02/27 13:51:22;;;;;;;;;;;5.50;94.90;;;;;;4989104;28;20285;-88
2022/02/27 13:53:48;;;;;;;;;;;5.50;94.90;;;;;;4989598;28;19914;-89
2022/02/27 13:56:14;;;;;;;;;;;5.50;93.80;;;;;;4965604;28;19929;-88
2022/02/27 13:58:40;;;;;;;;;;;5.60;94.50;;;;;;5002026;28;19922;-86
2022/02/27 14:01:12;;;;;;;;;;;5.70;95.10;;;;;;4989696;28;19961;-88
2022/02/27 14:03:42;;;;;;;;;;;5.70;95.10;;;;;;5008203;28;19921;-88
2022/02/27 14:06:12;;;;;;;;;;;5.60;94.40;;;;;;4989216;28;20360;-88
2022/02/27 14:08:41;;;;;;;;;;;5.70;94.30;;;;;;4999374;28;20013;-86
2022/02/27 14:11:08;;;;;;;;;;;5.70;93.90;;;;;;5007609;28;19920;-88
2022/02/27 14:13:35;;;;;;;;;;;5.70;94.80;;;;;;5007085;28;19933;-88
2022/02/27 14:16:10;;;;;;;;;;;5.70;94.90;;;;;;4974716;28;19997;-89
2022/02/27 14:18:37;;;;;;;;;;;5.70;93.50;;;;;;4974851;28;19985;-87
2022/02/27 14:21:23;;;;;;;;;;;5.60;94.50;;;;;;4993932;28;19921;-88
2022/02/27 14:23:53;;;;;;;;;;;5.60;93.00;;;;;;5011064;28;19914;-88
2022/02/27 14:26:19;;;;;;;;;;;5.60;93.60;;;;;;4992032;28;20009;-87
2022/02/27 14:28:45;;;;;;;;;;;5.50;94.10;;;;;;4998443;28;20013;-87